Coppermine, Canada
Current Conditions -  °F | °C
As of 5:00 PM on Monday 22 Dec 2014 (Local Time) from CYCO Reporting Station
Ice Pellets Ice Pellets  
Wind Chill: -38°   Ceiling: 24000
Heat Index: -17°   Visibility: 10mi
Dew Point: -22°   Wind: 12mph
Humidity: 76%   Direction: 350°N
Pressure: 30.22"   Gusts: NA
Location:  67.83°N, 115.08°W
Report Text: CYCO 230000Z 35010KT 10SM IC VCSH FEW040 SCT160 BKN240 M27/M30 A3022 RMK SC2AC2CS1 VIS SE 5 SLP237
Loading
Personal Weather Stations






























Interactive Weather Map New forecast layout! Learn more

10-Day Weather Forecast

Advertisements
Track Severe Weather on mobile